Cherryplain, New York
Current Conditions -  °F | °C
As of 1:52 PM on Friday 21 Nov 2014 (Local Time) from KAQW Reporting Station
Overcast Overcast  
Wind Chill: 17°   Ceiling: 4700
Heat Index: 28°   Visibility: 9mi
Dew Point: 13°   Wind: 14mph
Humidity: 53%   Direction: 280°W
Pressure: 30.22"   Gusts: 26mph
Location:  42.6328°N, 73.3562°W
Report Text: KAQW 211852Z AUTO 28012G23KT 240V310 9SM SCT037 BKN047 OVC055 M02/M11 A3022 RMK AO2 SNE52 SLP243 P0000 T10221106
Loading
Personal Weather Stations






























Interactive Weather Map New forecast layout! Learn more

10-Day Weather Forecast

Advertisements
Track Severe Weather on mobile